Startpagina
METAR-TAF:

METAR-TAF

Vliegvelden :

Mauritius, Plaisance, Mauritius

breedte: 20-26S, lengte: 057-40E, hoogte: 55 m

Actueel weer

Dit bericht is 1 uur en het 4 minuten geleden gemaakt, om 02:00 UTC
Wind 3 kt uit het noorden
Temperatuur 21°C
Vochtigheid 88%
Druk 1018 hPa
Zicht 10 km of meer
Gebroken wolken op 1600 ft

METAR: FIMP 240200Z 35003KT 9999 BKN016 21/19 Q1018

Tijdstip: 07:04 (03:04 UTC)

Verwachting

Dit bericht is 3 uur en het 34 minuten geleden gemaakt, om 23:30 UTC
Verwachting geldig van 24 om 00 UTC tot 25 om 06 UTC
Wind 2 kt uit het noordwesten
Zicht 10 km of meer
Verspreide wolken op 1800 ft
Wijzigt naar
van 24 om 03 UTC tot 24 om 05 UTC
Wind 10 kt uit het oosten
Tijdelijke
van 24 om 06 UTC tot 24 om 20 UTC
Zicht: 7000 m
Weinig wolken op 1000 ft
Gebroken wolken op 1300 ft
Gebroken wolken op 4500 ft
lichte regenbuien

TAF: FIMP 232330Z 2400/2506 32002KT 9999 SCT018 BECMG 2403/2405 09010KT TEMPO 2406/2420 7000 -SHRA FEW010 BKN013 BKN045

Waarnemingen en weersverwachtingen van meer dan 4000 vliegvelden (METAR en TAF).

De beschikbare stations zijn de gele en rode punten op de kaart.

Ga met uw muis naar het station om de naam te zien.

Klik dan om waarnemingen en weersverwachtingen te zien.

kaart wijzigen: klik op de groene knoppen met een zwart kruis om in te zoomen, op de groene knop met een streepje om uit te zoomen of op de groene pijlen voor aangrenzende kaarten.


METAR-TAF: